Aspen, Colorado
Current Conditions -  °F | °C
As of 3:53 AM on Thursday 27 Nov 2014 (Local Time) from KASE Reporting Station
Clear Clear  
Wind Chill: 10°   Ceiling: Unl
Heat Index: 19°   Visibility: 10mi
Dew Point: 15°   Wind: 7mph
Humidity: 85%   Direction: 210°SSW
Pressure: 30.48"   Gusts: NA
Location:  39.19°N, 106.81°W
Report Text: KASE 271053Z AUTO 21006KT 10SM CLR M07/M09 A3048 RMK AO2 SLP318 T10721094
Loading
Personal Weather Stations






























Interactive Weather Map New forecast layout! Learn more

10-Day Weather Forecast

Advertisements
Track Severe Weather on mobile